Time;durP1;ratioP1;P1;durP2;ratioP2;P2;SDS_P1;SDS_P2;PMS_P1;PMS_P2;Temp;Humidity;BMP_temperature;BMP_pressure;BME280_temperature;BME280_humidity;BME280_pressure;Samples;Min_cycle;Max_cycle;Signal;HPM_P1;HPM_P2
2022/02/09 00:00:08;;;;;;;0.70;0.70;;;;;;;7.09;68.86;100623.67;103546;1276;108774;-67
2022/02/09 00:03:10;;;;;;;0.60;0.60;;;;;;;7.09;68.51;100628.28;103380;1276;137761;-65
2022/02/09 00:08:16;;;;;;;0.60;0.60;;;;;;;7.03;68.41;100642.45;103465;1276;138502;-66
2022/02/09 00:10:48;;;;;;;0.60;0.60;;;;;;;7.03;68.68;100650.05;103588;1276;99582;-66
2022/02/09 00:13:36;;;;;;;0.70;0.70;;;;;;;7.01;68.96;100655.16;103287;1276;138288;-67
2022/02/09 00:19:17;;;;;;;0.60;0.60;;;;;;;6.94;68.45;100653.29;103381;1276;138320;-66
2022/02/09 01:57:40;;;;;;;0.70;0.70;;;;;;;6.31;70.33;100751.01;103465;1276;138459;-67
2022/02/09 02:00:08;;;;;;;0.70;0.70;;;;;;;6.27;70.43;100754.71;103577;1276;99505;-67
2022/02/09 02:02:37;;;;;;;0.70;0.70;;;;;;;6.21;70.46;100754.20;103510;1276;138401;-66
2022/02/09 02:05:05;;;;;;;0.70;0.70;;;;;;;6.16;70.43;100755.80;103575;1276;94386;-66
2022/02/09 02:10:08;;;;;;;0.70;0.70;;;;;;;6.12;70.78;100764.27;103565;1276;108640;-66
2022/02/09 02:13:12;;;;;;;0.80;0.80;;;;;;;6.10;70.73;100763.92;103684;1276;99406;-66
2022/02/09 02:18:52;;;;;;;0.70;0.70;;;;;;;6.12;70.72;100780.49;103326;1281;94384;-67
2022/02/09 02:21:30;;;;;;;0.70;0.70;;;;;;;6.06;71.01;100782.09;103015;1281;137827;-66
2022/02/09 02:34:40;;;;;;;0.70;0.70;;;;;;;6.05;71.79;100790.20;103523;1276;95276;-67
2022/02/09 02:37:26;;;;;;;0.60;0.60;;;;;;;6.09;71.82;100794.95;103603;1276;107703;-66
2022/02/09 03:13:24;;;;;;;0.60;0.60;;;;;;;6.37;71.39;100805.65;103536;1277;94627;-66
2022/02/09 03:16:03;;;;;;;0.60;0.60;;;;;;;6.37;71.31;100806.17;103443;1277;139180;-66
2022/02/09 03:42:56;;;;;;;0.70;0.70;;;;;;;6.50;70.98;100825.02;103622;1277;95512;-66
2022/02/09 03:53:35;;;;;;;0.70;0.70;;;;;;;6.62;70.86;100836.45;103552;1277;94406;-66
2022/02/09 03:58:51;;;;;;;0.60;0.60;;;;;;;6.68;70.38;100843.67;103546;1276;108433;-66
2022/02/09 04:01:20;;;;;;;0.60;0.60;;;;;;;6.64;70.58;100843.33;103569;1277;99351;-66
2022/02/09 04:03:48;;;;;;;0.70;0.70;;;;;;;6.65;70.51;100845.27;103470;1277;138450;-66
2022/02/09 04:06:16;;;;;;;0.60;0.60;;;;;;;6.65;70.45;100844.56;103576;1278;94343;-67
2022/02/09 04:08:52;;;;;;;0.60;0.60;;;;;;;6.63;70.33;100845.80;103511;1278;138231;-67
2022/02/09 04:12:14;;;;;;;0.70;0.70;;;;;;;6.59;70.25;100845.11;103605;1277;107463;-66
2022/02/09 04:14:52;;;;;;;0.60;0.60;;;;;;;6.53;70.27;100843.54;103384;1278;138449;-65
2022/02/09 04:36:47;;;;;;;0.70;0.70;;;;;;;6.44;69.69;100831.39;103547;1276;94691;-65
2022/02/09 04:39:25;;;;;;;0.70;0.70;;;;;;;6.45;69.47;100837.21;103457;1277;138140;-65
2022/02/09 04:55:45;;;;;;;0.70;0.70;;;;;;;6.24;69.50;100851.36;103580;1276;99866;-66
2022/02/09 05:01:18;;;;;;;0.70;0.70;;;;;;;6.13;69.52;100849.79;103590;1277;94885;-65
2022/02/09 05:22:50;;;;;;;0.80;0.80;;;;;;;5.97;71.47;100869.34;103505;1276;98324;-67
2022/02/09 05:26:24;;;;;;;0.80;0.80;;;;;;;5.92;71.75;100865.79;103602;1276;108922;-66
2022/02/09 05:28:21;;;;;;;0.90;0.90;;;;;;;5.94;71.95;100869.31;103374;1276;138759;-66
2022/02/09 05:30:52;;;;;;;0.70;0.70;;;;;;;5.91;72.15;100869.66;103583;1276;94616;-67
2022/02/09 05:33:22;;;;;;;0.70;0.70;;;;;;;5.87;72.47;100862.97;103445;1276;138193;-67
2022/02/09 05:35:50;;;;;;;0.70;0.70;;;;;;;5.90;72.44;100862.80;103601;1276;98176;-66
2022/02/09 05:38:19;;;;;;;0.70;0.70;;;;;;;5.89;72.58;100862.44;103448;1276;139478;-65
2022/02/09 05:40:47;;;;;;;0.70;0.70;;;;;;;5.90;72.72;100863.50;103582;1276;94818;-65
2022/02/09 05:43:17;;;;;;;0.70;0.70;;;;;;;5.89;72.88;100864.38;103598;1276;94386;-64
2022/02/09 05:51:07;;;;;;;0.80;0.80;;;;;;;5.92;73.15;100871.78;103416;1276;138489;-66
2022/02/09 05:56:33;;;;;;;0.70;0.70;;;;;;;5.97;73.24;100877.77;103465;1276;138626;-67
2022/02/09 05:59:48;;;;;;;0.80;0.80;;;;;;;6.02;72.99;100876.40;103597;1276;108683;-67
2022/02/09 06:01:50;;;;;;;0.70;0.70;;;;;;;6.06;72.79;100873.40;103511;1276;99461;-65
2022/02/09 06:04:18;;;;;;;0.70;0.70;;;;;;;6.07;72.70;100878.16;103388;1276;138885;-67
2022/02/09 06:06:46;;;;;;;0.60;0.60;;;;;;;6.06;72.84;100882.04;103562;1276;94678;-65
2022/02/09 06:09:14;;;;;;;0.70;0.70;;;;;;;6.08;72.68;100882.04;103455;1276;138505;-66
2022/02/09 06:14:40;;;;;;;0.70;0.70;;;;;;;5.95;72.74;100881.66;103585;1276;99316;-66
2022/02/09 06:19:54;;;;;;;0.70;0.70;;;;;;;6.01;72.73;100883.27;103464;1276;94367;-66
2022/02/09 06:22:23;;;;;;;0.70;0.70;;;;;;;6.08;72.51;100882.40;103482;1276;138459;-66
2022/02/09 06:24:52;;;;;;;0.70;0.70;;;;;;;6.10;72.51;100882.56;103583;1276;107245;-67
2022/02/09 06:27:20;;;;;;;0.70;0.70;;;;;;;6.10;72.32;100887.15;103507;1276;138106;-67
2022/02/09 06:29:48;;;;;;;0.70;0.70;;;;;;;6.12;72.18;100888.56;103545;1276;108455;-66
2022/02/09 06:32:19;;;;;;;0.60;0.60;;;;;;;6.10;72.16;100891.73;103532;1276;94857;-68
2022/02/09 06:34:47;;;;;;;0.70;0.70;;;;;;;6.11;71.94;100891.04;103751;1276;139230;-67
2022/02/09 06:37:21;;;;;;;0.70;0.70;;;;;;;6.10;72.03;100895.79;103517;1276;108416;-67
2022/02/09 06:39:56;;;;;;;0.70;0.70;;;;;;;6.05;71.82;100900.38;103503;1276;138117;-67
2022/02/09 06:42:25;;;;;;;0.70;0.70;;;;;;;6.02;72.11;100905.14;103567;1276;108692;-67
2022/02/09 06:44:58;;;;;;;0.70;0.70;;;;;;;6.05;72.06;100911.30;103573;1277;138634;-66
2022/02/09 06:47:28;;;;;;;0.70;0.70;;;;;;;6.08;72.04;100908.84;103581;1276;94367;-67
2022/02/09 06:50:03;;;;;;;0.80;0.80;;;;;;;6.08;71.89;100911.65;103550;1276;107692;-67
2022/02/09 06:52:32;;;;;;;0.70;0.70;;;;;;;6.05;71.95;100910.08;103436;1275;138601;-67
2022/02/09 06:57:56;;;;;;;0.70;0.70;;;;;;;5.94;71.85;100913.73;103551;1276;139331;-65
2022/02/09 07:00:23;;;;;;;0.70;0.70;;;;;;;6.03;71.92;100912.52;103639;1276;96073;-67
2022/02/09 07:02:51;;;;;;;0.90;0.90;;;;;;;6.09;71.59;100913.06;103519;1276;138193;-68
2022/02/09 07:05:20;;;;;;;0.80;0.80;;;;;;;6.04;71.61;100915.35;103571;1276;98923;-68
2022/02/09 07:07:48;;;;;;;0.80;0.80;;;;;;;6.08;71.82;100913.95;103670;1276;108817;-67
2022/02/09 07:10:16;;;;;;;0.80;0.80;;;;;;;6.12;71.54;100912.36;103321;1277;138630;-66
2022/02/09 07:12:43;;;;;;;0.70;0.70;;;;;;;6.14;71.47;100910.59;103614;1276;94386;-67
2022/02/09 07:15:16;;;;;;;0.90;0.90;;;;;;;6.09;71.33;100909.55;103495;1276;137943;-67
2022/02/09 07:17:44;;;;;;;0.80;0.80;;;;;;;6.08;71.74;100910.08;103741;1276;99386;-66
2022/02/09 07:20:22;;;;;;;0.70;0.70;;;;;;;6.12;71.56;100911.30;103517;1275;108653;-66
2022/02/09 07:22:54;;;;;;;0.70;0.70;;;;;;;6.18;71.71;100918.89;103449;1276;139323;-67
2022/02/09 07:25:30;;;;;;;0.70;0.70;;;;;;;6.23;71.30;100926.47;103626;1276;94695;-66
2022/02/09 07:28:05;;;;;;;0.80;0.80;;;;;;;6.27;71.57;100932.83;103482;1276;138963;-67
2022/02/09 07:30:33;;;;;;;0.70;0.70;;;;;;;6.34;71.12;100932.29;103617;1276;99722;-66
2022/02/09 07:33:02;;;;;;;0.70;0.70;;;;;;;6.40;71.29;100929.99;103515;1276;138676;-67
2022/02/09 07:35:31;;;;;;;0.70;0.70;;;;;;;6.48;71.06;100931.92;103526;1276;94421;-67
2022/02/09 07:37:59;;;;;;;0.70;0.70;;;;;;;6.45;70.72;100935.64;103577;1276;94636;-67
2022/02/09 07:40:27;;;;;;;0.70;0.70;;;;;;;6.47;70.93;100935.28;103202;1276;138351;-66
2022/02/09 07:43:00;;;;;;;0.70;0.70;;;;;;;6.66;70.42;100930.14;103356;1276;99456;-67
2022/02/09 07:50:44;;;;;;;0.60;0.60;;;;;;;7.46;68.72;100918.23;103536;1276;94814;-67
2022/02/09 07:53:23;;;;;;;0.60;0.60;;;;;;;7.46;67.96;100924.05;103425;1276;138169;-67
2022/02/09 07:55:51;;;;;;;0.60;0.60;;;;;;;7.48;68.14;100922.81;103494;1276;99547;-66
2022/02/09 07:58:19;;;;;;;0.60;0.60;;;;;;;7.62;67.74;100918.67;103428;1274;138481;-66
2022/02/09 08:00:47;;;;;;;0.60;0.60;;;;;;;7.66;67.66;100915.11;103383;1275;94335;-66
2022/02/09 08:03:15;;;;;;;0.70;0.70;;;;;;;7.65;67.38;100922.54;103722;1276;139292;-67
2022/02/09 08:05:45;;;;;;;0.70;0.70;;;;;;;7.67;67.71;100920.75;103490;1276;108627;-66
2022/02/09 08:08:15;;;;;;;0.80;0.80;;;;;;;7.85;67.62;100922.76;103546;1276;99295;-67
2022/02/09 08:10:48;;;;;;;0.60;0.60;;;;;;;7.88;67.35;100925.91;103326;1276;138578;-67
2022/02/09 08:25:23;;;;;;;0.60;0.60;;;;;;;7.86;67.72;100929.83;103641;1276;107916;-65
2022/02/09 08:30:08;;;;;;;0.60;0.60;;;;;;;7.86;68.09;100932.83;103552;1276;94731;-67
2022/02/09 08:32:41;;;;;;;0.60;0.60;;;;;;;7.97;67.67;100930.29;103497;1276;108001;-65
2022/02/09 08:35:09;;;;;;;0.60;0.60;;;;;;;7.97;67.66;100925.87;103325;1276;138478;-66
2022/02/09 08:37:37;;;;;;;0.60;0.60;;;;;;;7.99;67.64;100923.02;103440;1276;109288;-66
2022/02/09 08:40:07;;;;;;;0.60;0.60;;;;;;;8.09;67.86;100916.75;103367;1276;138609;-67
2022/02/09 08:42:38;;;;;;;0.60;0.60;;;;;;;8.17;67.32;100913.86;103686;1276;94630;-66
2022/02/09 08:45:10;;;;;;;0.80;0.80;;;;;;;8.23;67.62;100910.45;103460;1276;139421;-65
2022/02/09 08:47:51;;;;;;;0.60;0.60;;;;;;;8.34;67.35;100914.06;103499;1276;99510;-67
2022/02/09 08:50:21;;;;;;;0.60;0.60;;;;;;;8.44;67.32;100910.64;103509;1276;110215;-65
2022/02/09 08:52:50;;;;;;;0.60;0.60;;;;;;;8.51;67.34;100909.89;103456;1276;138240;-67
2022/02/09 08:55:19;;;;;;;0.60;0.60;;;;;;;8.58;67.11;100907.51;103631;1276;94293;-67
2022/02/09 08:57:47;;;;;;;0.50;0.50;;;;;;;8.69;67.26;100905.98;103511;1276;138024;-67
2022/02/09 09:00:22;;;;;;;0.50;0.50;;;;;;;8.78;66.99;100904.83;103341;1276;98956;-66
2022/02/09 09:03:05;;;;;;;0.50;0.50;;;;;;;8.88;66.81;100908.77;103513;1276;108835;-66
2022/02/09 09:05:49;;;;;;;0.50;0.50;;;;;;;8.92;66.35;100906.82;103280;1275;138196;-65
2022/02/09 09:08:36;;;;;;;0.50;0.50;;;;;;;8.85;66.30;100903.69;103305;1276;94840;-66
2022/02/09 10:03:47;;;;;;;0.50;0.40;;;;;;;9.18;68.68;100899.59;103443;1276;94975;-66
2022/02/09 10:34:20;;;;;;;0.50;0.40;;;;;;;9.45;69.49;100878.50;103212;1276;139395;-67
2022/02/09 10:36:51;;;;;;;0.40;0.40;;;;;;;9.60;69.27;100881.11;103366;1276;100278;-65
2022/02/09 10:39:25;;;;;;;0.50;0.40;;;;;;;9.69;69.20;100874.44;103469;1276;109150;-66
2022/02/09 10:41:53;;;;;;;0.50;0.40;;;;;;;9.71;68.67;100866.06;103296;1276;139000;-66
2022/02/09 10:44:25;;;;;;;0.50;0.40;;;;;;;9.88;68.54;100865.80;103339;1276;94368;-66
2022/02/09 10:46:55;;;;;;;0.50;0.40;;;;;;;9.89;67.93;100863.48;103256;1275;138525;-67
2022/02/09 10:49:29;;;;;;;0.50;0.40;;;;;;;9.81;67.73;100861.13;103513;1276;99446;-67
2022/02/09 10:54:29;;;;;;;0.50;0.50;;;;;;;9.69;68.20;100859.71;103529;1275;95229;-66
2022/02/09 10:57:00;;;;;;;0.40;0.40;;;;;;;9.63;68.62;100859.27;103502;1276;95753;-66
2022/02/09 10:59:29;;;;;;;0.40;0.40;;;;;;;9.51;69.09;100857.86;103334;1276;138305;-66
2022/02/09 11:02:09;;;;;;;0.40;0.40;;;;;;;9.50;69.91;100858.04;103797;1276;99358;-69
2022/02/09 11:05:28;;;;;;;0.50;0.40;;;;;;;9.56;70.27;100856.17;103276;1276;139003;-66
2022/02/09 11:07:56;;;;;;;0.40;0.30;;;;;;;9.58;70.17;100851.72;103314;1276;95690;-66
2022/02/09 11:10:25;;;;;;;0.40;0.40;;;;;;;9.48;70.06;100852.21;103262;1276;138486;-66
2022/02/09 11:12:53;;;;;;;0.50;0.40;;;;;;;9.35;70.25;100850.98;103454;1276;109335;-65
2022/02/09 11:15:22;;;;;;;0.50;0.40;;;;;;;9.28;70.77;100846.84;103447;1276;98417;-66
2022/02/09 11:17:50;;;;;;;0.50;0.40;;;;;;;9.31;70.95;100844.13;103320;1276;138798;-66
2022/02/09 11:20:22;;;;;;;0.50;0.40;;;;;;;9.25;70.97;100841.03;103411;1276;95740;-67
2022/02/09 11:22:50;;;;;;;0.40;0.40;;;;;;;9.22;71.36;100840.35;103349;1276;138681;-65
2022/02/09 11:25:31;;;;;;;0.50;0.40;;;;;;;9.22;71.40;100835.05;103474;1276;109454;-65
2022/02/09 11:28:20;;;;;;;0.50;0.50;;;;;;;9.16;71.48;100829.63;103345;1276;138668;-67
2022/02/09 11:31:14;;;;;;;0.50;0.40;;;;;;;9.16;71.72;100827.33;103416;1276;111089;-66
2022/02/09 11:34:05;;;;;;;0.50;0.50;;;;;;;9.08;71.97;100823.36;103384;1276;96052;-67
2022/02/09 11:36:45;;;;;;;0.50;0.50;;;;;;;9.07;72.13;100823.20;103113;1276;138751;-65
2022/02/09 11:39:43;;;;;;;0.50;0.40;;;;;;;9.07;72.35;100819.65;103424;1276;109813;-66
2022/02/09 11:42:58;;;;;;;0.50;0.40;;;;;;;9.04;72.25;100817.39;103355;1276;139339;-67
2022/02/09 12:00:07;;;;;;;0.50;0.50;;;;;;;9.24;72.58;100808.98;103254;1276;139238;-66
2022/02/09 12:09:12;;;;;;;0.40;0.40;;;;;;;9.11;73.25;100808.24;103319;1281;109800;-65
2022/02/09 12:11:58;;;;;;;0.50;0.40;;;;;;;9.16;73.36;100798.64;103037;1281;139096;-66
2022/02/09 12:20:25;;;;;;;0.50;0.40;;;;;;;9.29;73.33;100801.11;103319;1276;96100;-65
2022/02/09 12:23:07;;;;;;;0.50;0.40;;;;;;;9.29;73.48;100801.27;103260;1276;139204;-65
2022/02/09 12:25:43;;;;;;;0.40;0.40;;;;;;;9.24;73.62;100803.12;103355;1276;99379;-65
2022/02/09 12:28:19;;;;;;;0.50;0.40;;;;;;;9.22;73.73;100805.99;103493;1276;109147;-66
2022/02/09 12:30:48;;;;;;;0.40;0.40;;;;;;;9.31;73.70;100808.70;103286;1276;138838;-66
2022/02/09 12:33:23;;;;;;;0.50;0.40;;;;;;;9.40;73.59;100810.51;103431;1276;95131;-66
2022/02/09 12:35:51;;;;;;;0.50;0.40;;;;;;;9.45;73.57;100809.90;103260;1276;137969;-66
2022/02/09 12:38:30;;;;;;;0.50;0.40;;;;;;;9.51;73.61;100809.29;103401;1276;99978;-66
2022/02/09 12:41:19;;;;;;;0.40;0.40;;;;;;;9.50;73.32;100806.63;103287;1276;139128;-67
2022/02/09 12:43:46;;;;;;;0.50;0.40;;;;;;;9.44;73.66;100798.23;103795;1276;95238;-65
2022/02/09 12:46:17;;;;;;;0.40;0.40;;;;;;;9.46;73.71;100796.79;103486;1276;96139;-65
2022/02/09 12:48:46;;;;;;;0.50;0.40;;;;;;;9.40;73.84;100800.95;103559;1274;137876;-66
2022/02/09 12:51:25;;;;;;;0.50;0.40;;;;;;;9.38;74.23;100803.10;103389;1276;99368;-66
2022/02/09 12:54:00;;;;;;;0.50;0.40;;;;;;;9.46;74.39;100803.50;103546;1276;138747;-65
2022/02/09 12:56:30;;;;;;;0.40;0.40;;;;;;;9.48;74.31;100795.50;103276;1276;95257;-66
2022/02/09 12:59:18;;;;;;;0.40;0.40;;;;;;;9.52;74.56;100795.27;103311;1276;138460;-67
2022/02/09 13:01:55;;;;;;;0.50;0.40;;;;;;;9.54;74.61;100795.05;103492;1276;109953;-66
2022/02/09 13:04:33;;;;;;;0.40;0.40;;;;;;;9.56;74.75;100794.67;103485;1276;99366;-65
2022/02/09 13:07:07;;;;;;;0.50;0.40;;;;;;;9.56;74.80;100794.48;103368;1276;138438;-66
2022/02/09 13:09:36;;;;;;;0.40;0.40;;;;;;;9.58;75.05;100797.13;104417;1276;95681;-67
2022/02/09 13:12:04;;;;;;;0.40;0.40;;;;;;;9.56;75.02;100795.20;103410;1276;138786;-66
2022/02/09 13:14:37;;;;;;;0.50;0.40;;;;;;;9.54;75.23;100792.75;103488;1276;109784;-65
2022/02/09 14:32:53;;;;;;;0.50;0.50;;;;;;;9.58;75.27;100763.27;103340;1276;138716;-65
2022/02/09 14:54:14;;;;;;;0.40;0.40;;;;;;;9.79;74.40;100745.90;103299;1276;138974;-66
2022/02/09 14:59:20;;;;;;;0.50;0.40;;;;;;;9.73;74.36;100753.61;103451;1276;95252;-66
2022/02/09 15:01:57;;;;;;;0.40;0.40;;;;;;;9.83;74.30;100752.55;103385;1276;138659;-66
2022/02/09 15:10:34;;;;;;;0.40;0.30;;;;;;;9.70;74.04;100752.95;103189;1276;108765;-65
2022/02/09 15:13:26;;;;;;;0.40;0.30;;;;;;;9.74;73.81;100758.74;103315;1276;138837;-65
2022/02/09 15:16:08;;;;;;;0.40;0.40;;;;;;;9.76;73.84;100767.39;103465;1276;95822;-66
2022/02/09 15:24:12;;;;;;;0.40;0.30;;;;;;;9.77;73.60;100778.92;103117;1276;138470;-65
2022/02/09 15:26:43;;;;;;;0.40;0.40;;;;;;;9.81;73.78;100781.67;103374;1276;95553;-65
2022/02/09 15:29:15;;;;;;;0.40;0.30;;;;;;;9.76;73.88;100775.91;103394;1276;95834;-63
2022/02/09 15:31:52;;;;;;;0.40;0.40;;;;;;;9.71;74.19;100780.24;103355;1276;138512;-65
2022/02/09 15:35:29;;;;;;;0.50;0.40;;;;;;;9.73;74.43;100778.81;103444;1276;99519;-63
2022/02/09 15:39:49;;;;;;;0.40;0.30;;;;;;;9.72;74.37;100779.35;103222;1276;121275;-64
2022/02/09 16:23:37;;;;;;;0.50;0.40;;;;;;;9.29;75.43;100769.73;103479;1279;95786;-64
2022/02/09 16:48:27;;;;;;;0.40;0.40;;;;;;;9.27;74.38;100761.09;103440;1276;139600;-65
2022/02/09 16:51:02;;;;;;;0.40;0.40;;;;;;;9.31;74.24;100762.61;103666;1276;95199;-66
2022/02/09 16:53:47;;;;;;;0.50;0.40;;;;;;;9.30;73.98;100763.53;103610;1276;109243;-66
2022/02/09 17:18:49;;;;;;;0.50;0.50;;;;;;;9.33;72.64;100759.94;103529;1276;138769;-65
2022/02/09 17:21:21;;;;;;;0.40;0.40;;;;;;;9.26;72.24;100763.23;103813;1276;109719;-66
2022/02/09 17:23:52;;;;;;;0.50;0.40;;;;;;;9.20;72.19;100759.25;103538;1276;99387;-64
2022/02/09 17:26:20;;;;;;;0.50;0.40;;;;;;;9.18;72.16;100756.27;103587;1276;137975;-66
2022/02/09 17:28:57;;;;;;;0.50;0.40;;;;;;;9.19;72.42;100754.64;103486;1276;95463;-66
2022/02/09 17:31:42;;;;;;;0.50;0.40;;;;;;;9.20;72.15;100752.87;103227;1277;139122;-67
2022/02/09 17:34:42;;;;;;;0.40;0.40;;;;;;;9.23;72.16;100752.30;103471;1276;108856;-65
2022/02/09 17:58:33;;;;;;;0.40;0.40;;;;;;;9.44;70.90;100757.29;103535;1276;96077;-66
2022/02/09 18:01:02;;;;;;;0.50;0.40;;;;;;;9.40;70.41;100752.92;103178;1276;138213;-65
2022/02/09 18:03:30;;;;;;;0.50;0.40;;;;;;;9.36;70.76;100752.80;103456;1276;98463;-65
2022/02/09 18:06:12;;;;;;;0.40;0.40;;;;;;;9.40;70.58;100753.09;103537;1276;108810;-63
2022/02/09 18:14:29;;;;;;;0.50;0.40;;;;;;;9.30;70.44;100751.30;103397;1276;139447;-65
2022/02/09 18:31:13;;;;;;;0.50;0.40;;;;;;;9.36;69.31;100741.27;103234;1276;138312;-63
2022/02/09 18:44:27;;;;;;;0.50;0.40;;;;;;;9.35;69.13;100739.70;102904;1276;139618;-64
2022/02/09 19:01:15;;;;;;;0.50;0.40;;;;;;;9.37;68.20;100738.60;102918;1278;139124;-66
2022/02/09 19:03:54;;;;;;;0.50;0.50;;;;;;;9.31;68.12;100741.37;103011;1276;95193;-66
2022/02/09 19:06:29;;;;;;;0.50;0.50;;;;;;;9.29;67.95;100740.69;102964;1276;140470;-65
2022/02/09 19:14:31;;;;;;;0.50;0.50;;;;;;;9.21;67.77;100741.70;102978;1276;138414;-66
2022/02/09 19:17:10;;;;;;;0.50;0.50;;;;;;;9.18;67.38;100741.55;103029;1276;95280;-66
2022/02/09 19:19:54;;;;;;;0.50;0.40;;;;;;;9.20;67.65;100741.35;102997;1276;139231;-66
2022/02/09 19:43:02;;;;;;;0.50;0.50;;;;;;;9.19;67.15;100746.33;103184;1276;107485;-62
2022/02/09 19:47:41;;;;;;;0.50;0.50;;;;;;;9.17;67.12;100747.40;103027;1276;96142;-66
2022/02/09 19:50:26;;;;;;;0.40;0.40;;;;;;;9.21;67.24;100750.54;103695;1276;138584;-68
2022/02/09 19:53:45;;;;;;;0.50;0.40;;;;;;;9.17;67.08;100746.19;103093;1276;99509;-68
2022/02/09 19:55:51;;;;;;;0.40;0.40;;;;;;;9.11;66.89;100748.92;102779;1276;138019;-65
2022/02/09 19:58:22;;;;;;;0.40;0.40;;;;;;;9.10;67.05;100746.64;103055;1276;95605;-65
2022/02/09 20:00:52;;;;;;;0.40;0.40;;;;;;;9.13;66.86;100753.33;102757;1276;138810;-66
2022/02/09 20:03:20;;;;;;;0.40;0.40;;;;;;;9.10;66.92;100752.83;103017;1276;111104;-66
2022/02/09 20:05:47;;;;;;;0.40;0.40;;;;;;;9.12;66.89;100755.65;103212;1276;99449;-68
2022/02/09 20:08:15;;;;;;;0.50;0.50;;;;;;;9.09;66.95;100756.92;103165;1276;138582;-65
2022/02/09 20:10:43;;;;;;;0.40;0.40;;;;;;;9.13;66.82;100760.41;103357;1276;95141;-67
2022/02/09 20:13:11;;;;;;;0.50;0.40;;;;;;;9.13;66.64;100758.81;103272;1276;138535;-65
2022/02/09 20:15:38;;;;;;;0.50;0.40;;;;;;;9.06;66.70;100755.55;103351;1276;111646;-66
2022/02/09 20:18:06;;;;;;;0.50;0.40;;;;;;;9.01;67.14;100757.20;103476;1276;98956;-65
2022/02/09 20:20:36;;;;;;;0.50;0.50;;;;;;;9.03;67.05;100762.13;103272;1276;138618;-65
2022/02/09 20:23:05;;;;;;;0.50;0.40;;;;;;;9.06;67.19;100764.59;103508;1276;95189;-65
2022/02/09 20:25:33;;;;;;;0.50;0.50;;;;;;;9.07;67.06;100759.07;103406;1276;138575;-65
2022/02/09 20:28:01;;;;;;;0.50;0.40;;;;;;;9.03;67.11;100758.42;103439;1276;109667;-67
2022/02/09 20:30:35;;;;;;;0.50;0.40;;;;;;;9.06;66.94;100764.76;103460;1276;99496;-67
2022/02/09 20:33:08;;;;;;;0.50;0.40;;;;;;;9.03;66.94;100762.49;103822;1276;138096;-65
2022/02/09 20:35:36;;;;;;;0.50;0.40;;;;;;;9.01;67.03;100758.45;103420;1276;95447;-65
2022/02/09 20:38:06;;;;;;;0.50;0.50;;;;;;;8.99;67.13;100756.72;103370;1276;137978;-65
2022/02/09 20:40:47;;;;;;;0.50;0.40;;;;;;;8.96;67.43;100757.11;103454;1276;110019;-67
2022/02/09 20:43:17;;;;;;;0.50;0.40;;;;;;;8.97;67.53;100757.79;103394;1276;139060;-66
2022/02/09 20:45:50;;;;;;;0.50;0.40;;;;;;;8.94;67.55;100759.45;103469;1276;108653;-66
2022/02/09 20:48:24;;;;;;;0.50;0.50;;;;;;;8.87;67.82;100755.45;103452;1276;96863;-66
2022/02/09 20:50:56;;;;;;;0.50;0.50;;;;;;;8.91;67.97;100758.41;103302;1276;138212;-66
2022/02/09 20:53:25;;;;;;;0.50;0.40;;;;;;;8.93;68.10;100759.98;103384;1276;109604;-65
2022/02/09 20:55:52;;;;;;;0.40;0.40;;;;;;;8.97;67.88;100763.29;103431;1276;138429;-64
2022/02/09 20:58:21;;;;;;;0.50;0.40;;;;;;;8.98;68.03;100762.20;103489;1276;109018;-66
2022/02/09 21:06:22;;;;;;;0.50;0.40;;;;;;;8.96;68.08;100756.56;103449;1276;109667;-67
2022/02/09 21:16:35;;;;;;;0.40;0.40;;;;;;;8.96;68.42;100753.39;103481;1276;95453;-66
2022/02/09 21:19:22;;;;;;;0.50;0.40;;;;;;;8.94;68.41;100758.37;103451;1277;138969;-66
2022/02/09 21:22:15;;;;;;;0.50;0.50;;;;;;;8.89;68.26;100757.73;103498;1278;99075;-65
2022/02/09 21:33:19;;;;;;;0.40;0.40;;;;;;;8.91;68.52;100762.84;103334;1277;138376;-66
2022/02/09 22:00:29;;;;;;;0.50;0.40;;;;;;;8.88;68.64;100756.86;103450;1277;108099;-66
2022/02/09 22:19:45;;;;;;;0.50;0.50;;;;;;;8.92;68.93;100749.20;103379;1277;107804;-65
2022/02/09 22:27:49;;;;;;;0.50;0.40;;;;;;;8.97;68.81;100745.92;103339;1277;141204;-66
2022/02/09 22:31:12;;;;;;;0.50;0.40;;;;;;;8.94;69.04;100745.80;103446;1277;98481;-65
2022/02/09 22:55:27;;;;;;;0.50;0.40;;;;;;;8.91;69.37;100712.74;103345;1278;111078;-64
2022/02/09 22:58:03;;;;;;;0.40;0.40;;;;;;;8.92;69.52;100713.42;103258;1277;138841;-65
2022/02/09 23:00:52;;;;;;;0.50;0.40;;;;;;;8.91;69.41;100719.64;103307;1277;107107;-66
2022/02/09 23:03:29;;;;;;;0.50;0.50;;;;;;;8.83;69.68;100718.16;103368;1277;138474;-64
2022/02/09 23:17:32;;;;;;;0.50;0.50;;;;;;;8.93;69.78;100731.83;103409;1277;95450;-66
